createdAt,value
2022-09-28T00:00:54.761Z,1.10
2022-09-28T00:03:59.308Z,1.10
2022-09-28T00:07:02.259Z,0.80
2022-09-28T00:10:05.517Z,0.90
2022-09-28T00:13:08.387Z,0.90
2022-09-28T00:16:14.120Z,1.00
2022-09-28T00:19:17.296Z,0.93
2022-09-28T00:22:20.233Z,1.00
2022-09-28T00:25:24.960Z,0.80
2022-09-28T00:28:27.824Z,0.80
2022-09-28T00:31:34.058Z,0.70
2022-09-28T00:34:40.715Z,0.77
2022-09-28T00:37:43.588Z,1.00
2022-09-28T00:40:46.585Z,0.80
2022-09-28T00:43:49.693Z,1.30
2022-09-28T00:47:31.229Z,0.88
2022-09-28T00:50:35.250Z,0.82
2022-09-28T00:53:39.058Z,0.90
2022-09-28T00:56:42.915Z,0.80
2022-09-28T00:59:45.873Z,0.73
2022-09-28T01:02:49.066Z,0.77
2022-09-28T01:05:52.891Z,0.93
2022-09-28T01:08:58.582Z,0.80
2022-09-28T01:12:01.732Z,0.70
2022-09-28T01:15:05.592Z,0.90
2022-09-28T01:18:17.689Z,0.85
2022-09-28T01:21:21.836Z,0.80
2022-09-28T01:24:32.459Z,0.98
2022-09-28T01:27:42.496Z,1.00
2022-09-28T01:30:58.325Z,0.80
2022-09-28T01:34:23.968Z,1.20
2022-09-28T01:37:36.838Z,0.80
2022-09-28T01:40:40.281Z,0.70
2022-09-28T01:43:46.043Z,0.88
2022-09-28T01:46:49.938Z,0.80
2022-09-28T01:49:58.066Z,1.00
2022-09-28T01:53:09.326Z,1.10
2022-09-28T01:56:34.981Z,0.88
2022-09-28T01:59:38.618Z,0.70
2022-09-28T02:02:59.565Z,0.80
2022-09-28T02:06:24.152Z,0.80
2022-09-28T02:09:33.787Z,0.70
2022-09-28T02:12:43.614Z,0.60
2022-09-28T02:15:54.054Z,0.80
2022-09-28T02:18:57.088Z,0.93
2022-09-28T02:22:07.155Z,0.65
2022-09-28T02:25:38.144Z,0.60
2022-09-28T02:28:41.400Z,0.73
2022-09-28T02:31:44.412Z,0.80
2022-09-28T02:34:47.459Z,0.80
2022-09-28T02:37:50.426Z,0.60
2022-09-28T02:41:13.841Z,1.27
2022-09-28T02:44:39.582Z,0.70
2022-09-28T02:48:12.186Z,0.70
2022-09-28T02:51:26.393Z,0.60
2022-09-28T02:54:43.121Z,0.80
2022-09-28T02:57:51.886Z,1.50
2022-09-28T03:01:25.703Z,0.80
2022-09-28T03:04:30.534Z,1.00
2022-09-28T03:07:46.622Z,0.90
2022-09-28T03:11:04.128Z,0.70
2022-09-28T03:14:08.246Z,1.20
2022-09-28T03:17:21.278Z,1.05
2022-09-28T03:20:24.507Z,0.90
2022-09-28T03:23:27.412Z,0.90
2022-09-28T03:26:30.306Z,1.02
2022-09-28T03:29:34.436Z,1.30
2022-09-28T03:32:41.080Z,1.13
2022-09-28T03:35:48.089Z,1.40
2022-09-28T03:38:55.127Z,1.60
2022-09-28T03:42:01.047Z,1.52
2022-09-28T03:45:05.987Z,2.55
2022-09-28T03:48:09.480Z,3.55
2022-09-28T03:51:12.996Z,3.63
2022-09-28T03:54:15.929Z,4.77
2022-09-28T03:57:18.804Z,4.82
2022-09-28T04:00:21.890Z,4.00
2022-09-28T04:03:25.525Z,3.50
2022-09-28T04:06:29.134Z,3.47
2022-09-28T04:09:32.158Z,12.20
2022-09-28T04:12:35.071Z,7.63
2022-09-28T04:15:38.546Z,6.57
2022-09-28T04:18:42.390Z,3.22
2022-09-28T04:22:08.935Z,2.50
2022-09-28T04:25:11.920Z,2.00
2022-09-28T04:28:33.965Z,2.20
2022-09-28T04:31:47.536Z,2.40
2022-09-28T04:34:51.883Z,2.13
2022-09-28T04:37:55.039Z,2.47
2022-09-28T04:40:58.044Z,2.90
2022-09-28T04:44:01.121Z,4.53
2022-09-28T04:47:05.284Z,4.43
2022-09-28T04:50:08.814Z,3.45
2022-09-28T04:53:31.682Z,3.40
2022-09-28T04:56:35.376Z,3.27
2022-09-28T04:59:38.328Z,3.05
2022-09-28T05:02:41.292Z,3.60
2022-09-28T05:06:03.050Z,3.28
2022-09-28T05:09:18.011Z,3.80
2022-09-28T05:12:21.516Z,3.70
2022-09-28T05:15:24.491Z,3.67
2022-09-28T05:18:27.447Z,3.90
2022-09-28T05:21:38.126Z,3.75
2022-09-28T05:24:41.671Z,3.38
2022-09-28T05:27:45.290Z,4.23
2022-09-28T05:31:05.364Z,6.30
2022-09-28T05:34:26.849Z,11.98
2022-09-28T05:37:31.358Z,9.90
2022-09-28T05:40:34.398Z,12.20
2022-09-28T05:43:38.538Z,5.80
2022-09-28T05:46:41.742Z,4.65
2022-09-28T05:49:46.310Z,4.70
2022-09-28T05:53:01.157Z,4.82
2022-09-28T05:56:04.373Z,4.82
2022-09-28T05:59:09.389Z,4.80
2022-09-28T06:02:13.025Z,3.85
2022-09-28T06:05:16.339Z,3.40
2022-09-28T06:08:19.363Z,4.00
2022-09-28T06:11:29.674Z,3.42
2022-09-28T06:14:34.969Z,2.47
2022-09-28T06:17:37.902Z,2.70
2022-09-28T06:21:01.478Z,1.60
2022-09-28T06:24:10.883Z,1.30
2022-09-28T06:27:14.059Z,1.80
2022-09-28T06:30:18.027Z,1.63
2022-09-28T06:33:21.933Z,1.60
2022-09-28T06:36:24.942Z,1.13
2022-09-28T06:39:27.815Z,1.10
2022-09-28T06:42:31.055Z,2.00
2022-09-28T06:45:54.441Z,1.43
2022-09-28T06:49:01.828Z,1.98
2022-09-28T06:52:33.312Z,1.45
2022-09-28T06:55:43.512Z,1.58
2022-09-28T06:58:46.742Z,1.48
2022-09-28T07:01:49.937Z,0.93
2022-09-28T07:05:03.861Z,1.02
2022-09-28T07:08:16.767Z,1.10
2022-09-28T07:11:54.897Z,1.00
2022-09-28T07:15:03.841Z,1.52
2022-09-28T07:18:08.084Z,3.70
2022-09-28T07:21:23.362Z,1.10
2022-09-28T07:24:29.823Z,1.00
2022-09-28T07:27:51.431Z,1.10
2022-09-28T07:31:15.620Z,1.00
2022-09-28T07:34:27.109Z,1.10
2022-09-28T07:37:41.371Z,0.98
2022-09-28T07:41:02.943Z,1.20
2022-09-28T07:44:06.269Z,1.08
2022-09-28T07:47:11.083Z,1.20
2022-09-28T07:50:33.916Z,1.50
2022-09-28T07:53:45.842Z,1.27
2022-09-28T07:57:07.033Z,1.20
2022-09-28T08:00:23.958Z,1.50
2022-09-28T08:03:27.299Z,1.27
2022-09-28T08:06:31.242Z,1.20
2022-09-28T08:09:35.357Z,1.50
2022-09-28T08:12:59.232Z,1.40
2022-09-28T08:16:28.468Z,1.55
2022-09-28T08:20:15.989Z,1.13
2022-09-28T08:23:19.950Z,1.77
2022-09-28T08:26:23.158Z,1.30
2022-09-28T08:29:26.953Z,1.67
2022-09-28T08:32:50.243Z,1.60
2022-09-28T08:36:11.775Z,1.60
2022-09-28T08:39:34.773Z,1.87
2022-09-28T08:43:13.296Z,1.60
2022-09-28T08:46:44.907Z,1.80
2022-09-28T08:50:15.243Z,1.98
2022-09-28T08:53:35.751Z,1.55
2022-09-28T08:56:50.458Z,1.50
2022-09-28T08:59:58.490Z,2.15
2022-09-28T09:03:12.381Z,1.98
2022-09-28T09:06:38.422Z,1.50
2022-09-28T09:10:39.951Z,2.15
2022-09-28T09:14:11.827Z,1.87
2022-09-28T09:17:21.409Z,1.50
2022-09-28T09:20:59.112Z,1.50
2022-09-28T09:24:49.859Z,1.60
2022-09-28T09:28:20.974Z,1.80
2022-09-28T09:31:29.839Z,2.40
2022-09-28T09:34:52.547Z,2.10
2022-09-28T09:38:27.846Z,2.10
2022-09-28T09:42:11.328Z,2.00
2022-09-28T09:45:45.114Z,2.00
2022-09-28T09:49:20.575Z,1.93
2022-09-28T09:52:52.016Z,1.50
2022-09-28T09:55:58.320Z,1.70
2022-09-28T09:59:15.298Z,1.90
2022-09-28T10:02:40.620Z,1.75
2022-09-28T10:06:00.321Z,2.00
2022-09-28T10:09:23.925Z,1.95
2022-09-28T10:12:27.209Z,1.90
2022-09-28T10:15:32.413Z,2.15
2022-09-28T10:18:45.258Z,1.63
2022-09-28T10:21:51.910Z,1.90
2022-09-28T10:25:02.140Z,2.00
2022-09-28T10:28:06.338Z,2.30
2022-09-28T10:31:37.273Z,1.80
2022-09-28T10:34:45.451Z,1.85
2022-09-28T10:38:04.638Z,1.80
2022-09-28T10:41:17.260Z,2.03
2022-09-28T10:44:28.849Z,2.20
2022-09-28T10:47:50.173Z,2.20
2022-09-28T10:51:05.748Z,2.10
2022-09-28T10:54:16.179Z,1.90
2022-09-28T10:57:33.874Z,2.10
2022-09-28T11:00:43.692Z,2.20
2022-09-28T11:04:06.745Z,1.85
2022-09-28T11:07:26.540Z,1.95
2022-09-28T11:10:30.746Z,2.50
2022-09-28T11:13:50.414Z,2.20
2022-09-28T11:17:26.366Z,2.20
2022-09-28T11:20:30.732Z,2.50
2022-09-28T11:23:36.064Z,2.88
2022-09-28T11:26:56.432Z,2.67
2022-09-28T11:30:02.291Z,3.05
2022-09-28T11:33:35.389Z,2.83
2022-09-28T11:37:41.831Z,3.35
2022-09-28T11:41:12.833Z,3.40
2022-09-28T11:44:38.355Z,3.37
2022-09-28T11:48:08.231Z,3.30
2022-09-28T11:51:17.842Z,2.80
2022-09-28T11:54:28.984Z,2.75
2022-09-28T11:57:36.540Z,2.72
2022-09-28T12:00:52.061Z,2.70
2022-09-28T12:04:08.447Z,2.63
2022-09-28T12:07:26.020Z,2.45
2022-09-28T12:10:36.184Z,2.40
2022-09-28T12:13:48.152Z,2.30
2022-09-28T12:17:20.096Z,1.90
2022-09-28T12:20:30.995Z,1.95
2022-09-28T12:23:35.828Z,2.13
2022-09-28T12:27:05.136Z,1.73
2022-09-28T12:30:15.952Z,2.28
2022-09-28T12:33:19.010Z,1.93
2022-09-28T12:36:30.526Z,2.15
2022-09-28T12:40:18.165Z,2.00
2022-09-28T12:43:40.696Z,2.20
2022-09-28T12:47:20.222Z,2.08
2022-09-28T12:50:40.672Z,2.00
2022-09-28T12:53:55.315Z,1.13
2022-09-28T12:57:02.129Z,1.52
2022-09-28T13:00:25.251Z,0.98
2022-09-28T13:03:50.909Z,1.15
2022-09-28T13:07:26.365Z,1.17
2022-09-28T13:10:37.469Z,1.20
2022-09-28T13:13:49.253Z,1.20
2022-09-28T13:17:12.404Z,1.05
2022-09-28T13:20:31.199Z,1.20
2022-09-28T13:23:42.529Z,1.00
2022-09-28T13:26:45.811Z,0.93
2022-09-28T13:29:50.309Z,1.10
2022-09-28T13:32:54.305Z,1.00
2022-09-28T13:35:57.237Z,0.90
2022-09-28T13:39:00.759Z,0.90
2022-09-28T13:42:03.868Z,2.50
2022-09-28T13:45:22.066Z,1.58
2022-09-28T13:49:06.665Z,1.20
2022-09-28T13:52:30.226Z,1.00
2022-09-28T13:55:37.762Z,1.17
2022-09-28T13:59:22.389Z,0.90
2022-09-28T14:02:32.768Z,1.05
2022-09-28T14:05:48.809Z,0.90
2022-09-28T14:09:08.200Z,1.17
2022-09-28T14:12:35.622Z,0.73
2022-09-28T14:15:43.779Z,0.98
2022-09-28T14:18:51.097Z,1.50
2022-09-28T14:21:58.097Z,1.08
2022-09-28T14:25:17.185Z,1.10
2022-09-28T14:28:54.516Z,1.10
2022-09-28T14:32:20.260Z,1.42
2022-09-28T14:35:33.224Z,1.10
2022-09-28T14:39:03.940Z,0.95
2022-09-28T14:42:15.712Z,1.10
2022-09-28T14:45:19.386Z,0.87
2022-09-28T14:48:43.513Z,1.00
2022-09-28T14:51:55.931Z,1.15
2022-09-28T14:54:58.980Z,1.33
2022-09-28T14:58:01.904Z,1.10
2022-09-28T15:01:07.019Z,0.90
2022-09-28T15:04:10.608Z,1.00
2022-09-28T15:07:28.649Z,1.00
2022-09-28T15:10:39.139Z,1.25
2022-09-28T15:13:42.075Z,1.02
2022-09-28T15:16:44.953Z,1.50
2022-09-28T15:20:10.977Z,1.30
2022-09-28T15:23:27.033Z,1.75
2022-09-28T15:26:31.694Z,1.10
2022-09-28T15:29:34.624Z,4.90
2022-09-28T15:32:37.520Z,2.67
2022-09-28T15:35:40.816Z,1.90
2022-09-28T15:38:43.958Z,3.90
2022-09-28T15:41:47.726Z,3.78
2022-09-28T15:45:23.084Z,3.38
2022-09-28T15:48:53.363Z,1.53
2022-09-28T15:51:56.651Z,2.15
2022-09-28T15:55:01.101Z,1.50
2022-09-28T15:58:17.513Z,1.10
2022-09-28T16:01:36.751Z,1.20
2022-09-28T16:04:55.883Z,1.00
2022-09-28T16:07:59.064Z,1.10
2022-09-28T16:11:20.407Z,1.05
2022-09-28T16:14:24.161Z,1.10
2022-09-28T16:17:35.156Z,1.08
2022-09-28T16:20:39.027Z,1.40
2022-09-28T16:23:42.223Z,1.60
2022-09-28T16:26:45.402Z,1.80
2022-09-28T16:30:09.047Z,1.40
2022-09-28T16:33:32.619Z,1.02
2022-09-28T16:36:45.367Z,1.43
2022-09-28T16:39:48.592Z,1.40
2022-09-28T16:42:51.592Z,1.70
2022-09-28T16:46:16.018Z,1.35
2022-09-28T16:49:19.373Z,1.40
2022-09-28T16:52:42.292Z,1.60
2022-09-28T16:55:46.097Z,2.15
2022-09-28T16:58:50.289Z,3.03
2022-09-28T17:01:56.299Z,4.78
2022-09-28T17:04:59.334Z,4.10
2022-09-28T17:08:03.358Z,2.83
2022-09-28T17:11:20.222Z,1.90
2022-09-28T17:14:26.490Z,1.85
2022-09-28T17:17:31.515Z,1.92
2022-09-28T17:20:34.540Z,1.98
2022-09-28T17:23:37.564Z,1.80
2022-09-28T17:26:41.873Z,2.30
2022-09-28T17:29:44.798Z,1.63
2022-09-28T17:32:47.866Z,1.90
2022-09-28T17:35:52.439Z,1.67
2022-09-28T17:38:55.562Z,1.93
2022-09-28T17:41:58.476Z,1.77
2022-09-28T17:45:01.415Z,1.70
2022-09-28T17:48:04.967Z,1.83
2022-09-28T17:51:12.036Z,2.22
2022-09-28T17:54:16.949Z,1.67
2022-09-28T17:57:19.889Z,1.80
2022-09-28T18:00:27.153Z,1.73
2022-09-28T18:03:30.170Z,1.95
2022-09-28T18:06:37.288Z,1.88
2022-09-28T18:09:40.394Z,1.60
2022-09-28T18:12:43.540Z,1.60
2022-09-28T18:15:46.476Z,2.03
2022-09-28T18:18:49.550Z,2.17
2022-09-28T18:21:52.481Z,1.98
2022-09-28T18:24:55.415Z,2.10
2022-09-28T18:28:00.006Z,2.05
2022-09-28T18:31:08.438Z,2.53
2022-09-28T18:34:12.401Z,2.80
2022-09-28T18:37:15.301Z,2.45
2022-09-28T18:40:19.466Z,2.40
2022-09-28T18:43:23.592Z,2.72
2022-09-28T18:46:29.763Z,2.95
2022-09-28T18:49:33.655Z,2.72
2022-09-28T18:52:37.676Z,2.30
2022-09-28T18:55:41.465Z,2.47
2022-09-28T18:58:44.840Z,3.10
2022-09-28T19:01:47.878Z,4.00
2022-09-28T19:04:50.822Z,3.10
2022-09-28T19:07:54.180Z,3.28
2022-09-28T19:11:07.635Z,2.90
2022-09-28T19:14:16.809Z,2.53
2022-09-28T19:17:20.255Z,2.42
2022-09-28T19:20:23.405Z,2.58
2022-09-28T19:23:26.298Z,2.60
2022-09-28T19:26:29.358Z,2.83
2022-09-28T19:29:32.234Z,3.17
2022-09-28T19:32:35.196Z,2.90
2022-09-28T19:35:39.748Z,2.97
2022-09-28T19:38:42.655Z,3.50
2022-09-28T19:41:49.291Z,3.43
2022-09-28T19:44:52.387Z,3.28
2022-09-28T19:47:59.593Z,3.28
2022-09-28T19:51:04.265Z,3.28
2022-09-28T19:54:07.350Z,3.08
2022-09-28T19:57:11.577Z,3.37
2022-09-28T20:00:14.646Z,3.00
2022-09-28T20:03:18.615Z,2.97
2022-09-28T20:06:22.214Z,2.92
2022-09-28T20:09:25.122Z,2.85
2022-09-28T20:12:28.021Z,2.73
2022-09-28T20:15:31.330Z,2.25
2022-09-28T20:18:35.377Z,2.40
2022-09-28T20:21:38.323Z,2.35
2022-09-28T20:24:41.242Z,2.47
2022-09-28T20:27:44.163Z,2.80
2022-09-28T20:30:47.148Z,2.60
2022-09-28T20:33:50.597Z,2.33
2022-09-28T20:36:54.029Z,2.55
2022-09-28T20:39:57.986Z,2.58
2022-09-28T20:43:00.961Z,2.27
2022-09-28T20:46:04.328Z,2.38
2022-09-28T20:49:07.774Z,2.33
2022-09-28T20:52:10.904Z,2.38
2022-09-28T20:55:13.881Z,2.38
2022-09-28T20:58:16.809Z,4.10
2022-09-28T21:01:21.700Z,4.07
2022-09-28T21:04:24.636Z,3.15
2022-09-28T21:07:27.556Z,3.58
2022-09-28T21:10:30.893Z,3.67
2022-09-28T21:13:33.847Z,3.30
2022-09-28T21:16:36.819Z,2.78
2022-09-28T21:19:39.748Z,2.70
2022-09-28T21:22:42.720Z,2.58
2022-09-28T21:25:45.641Z,2.42
2022-09-28T21:28:48.502Z,2.87
2022-09-28T21:31:51.438Z,2.40
2022-09-28T21:34:55.723Z,3.00
2022-09-28T21:37:58.645Z,2.65
2022-09-28T21:41:01.683Z,2.75
2022-09-28T21:44:05.084Z,2.87
2022-09-28T21:47:07.977Z,2.75
2022-09-28T21:50:10.849Z,2.78
2022-09-28T21:53:13.719Z,3.00
2022-09-28T21:56:16.679Z,3.80
2022-09-28T21:59:19.569Z,3.10
2022-09-28T22:02:23.182Z,2.95
2022-09-28T22:05:26.179Z,3.30
2022-09-28T22:08:29.061Z,3.33
2022-09-28T22:11:32.035Z,3.25
2022-09-28T22:14:34.891Z,3.40
2022-09-28T22:17:37.886Z,3.20
2022-09-28T22:20:40.763Z,3.13
2022-09-28T22:23:43.790Z,3.40
2022-09-28T22:26:46.664Z,3.42
2022-09-28T22:29:51.039Z,3.57
2022-09-28T22:32:53.944Z,3.15
2022-09-28T22:35:56.868Z,3.50
2022-09-28T22:39:00.408Z,3.20
2022-09-28T22:42:03.288Z,3.70
2022-09-28T22:45:06.673Z,3.47
2022-09-28T22:48:10.112Z,3.50
2022-09-28T22:51:13.056Z,3.35
2022-09-28T22:54:16.421Z,3.83
2022-09-28T22:57:19.432Z,3.05
2022-09-28T23:00:22.288Z,3.30
2022-09-28T23:03:25.188Z,3.40
2022-09-28T23:06:30.319Z,3.50
2022-09-28T23:09:33.287Z,3.42
2022-09-28T23:12:36.199Z,3.80
2022-09-28T23:15:39.186Z,3.67
2022-09-28T23:18:42.138Z,3.63
2022-09-28T23:21:46.180Z,3.65
2022-09-28T23:24:49.122Z,3.67
2022-09-28T23:27:51.997Z,3.67
2022-09-28T23:30:55.026Z,3.70
2022-09-28T23:34:03.750Z,3.70
2022-09-28T23:37:06.655Z,4.00
2022-09-28T23:40:09.918Z,3.35
2022-09-28T23:43:13.302Z,3.30
2022-09-28T23:46:20.497Z,3.20
2022-09-28T23:49:24.075Z,3.50
2022-09-28T23:52:26.942Z,3.75
2022-09-28T23:55:29.872Z,3.75
2022-09-28T23:58:32.779Z,3.72
